Time;durP1;ratioP1;P1;durP2;ratioP2;P2;SDS_P1;SDS_P2;PMS_P1;PMS_P2;Temp;Humidity;BMP_temperature;BMP_pressure;BME280_temperature;BME280_humidity;BME280_pressure;Samples;Min_cycle;Max_cycle;Signal;HPM_P1;HPM_P2
2023/07/27 00:00:16;;;;;;;6.07;4.15;;;17.60;99.90;;;;;;2091067;28;20036;-70
2023/07/27 00:01:17;;;;;;;4.47;4.07;;;17.60;99.90;;;;;;2090841;28;20103;-70
2023/07/27 00:02:17;;;;;;;7.85;4.05;;;17.50;99.90;;;;;;2090220;28;20031;-70
2023/07/27 00:03:18;;;;;;;4.38;3.72;;;17.60;99.90;;;;;;2092032;28;20032;-70
2023/07/27 00:04:18;;;;;;;4.72;4.22;;;17.60;99.90;;;;;;2091039;28;20031;-70
2023/07/27 00:05:19;;;;;;;5.00;3.70;;;17.60;99.90;;;;;;2092768;28;20699;-70
2023/07/27 00:06:19;;;;;;;5.15;3.90;;;17.50;99.90;;;;;;2091098;28;20024;-70
2023/07/27 00:07:20;;;;;;;4.18;3.67;;;17.60;99.90;;;;;;2091249;28;20029;-71
2023/07/27 00:08:20;;;;;;;4.40;4.00;;;17.50;99.90;;;;;;2091446;28;20459;-71
2023/07/27 00:09:21;;;;;;;5.70;3.70;;;17.60;99.90;;;;;;2091862;28;20024;-71
2023/07/27 00:10:24;;;;;;;5.05;3.65;;;17.50;99.90;;;;;;2090870;28;20032;-71
2023/07/27 00:11:24;;;;;;;5.43;4.05;;;17.60;99.90;;;;;;2092273;28;20031;-70
2023/07/27 00:12:25;;;;;;;5.72;3.92;;;17.50;99.90;;;;;;2093455;28;20032;-70
2023/07/27 00:13:25;;;;;;;4.65;3.72;;;17.60;99.90;;;;;;2093278;28;20518;-70
2023/07/27 00:14:26;;;;;;;4.50;3.95;;;17.50;99.90;;;;;;2090509;28;20031;-70
2023/07/27 00:15:26;;;;;;;5.00;3.75;;;17.60;99.90;;;;;;2090394;28;20388;-70
2023/07/27 00:16:27;;;;;;;4.18;3.08;;;17.50;99.90;;;;;;2091567;28;20017;-70
2023/07/27 00:17:27;;;;;;;7.38;3.40;;;17.50;99.90;;;;;;2092241;28;20388;-70
2023/07/27 00:18:28;;;;;;;4.63;3.47;;;17.50;99.90;;;;;;2090837;28;20029;-70
2023/07/27 00:19:29;;;;;;;6.25;3.58;;;17.50;99.90;;;;;;2089813;28;20031;-70
2023/07/27 00:20:29;;;;;;;3.85;3.45;;;17.60;99.90;;;;;;2090250;28;20053;-70
2023/07/27 00:21:30;;;;;;;4.68;3.50;;;17.50;99.90;;;;;;2090397;28;20025;-70
2023/07/27 00:22:30;;;;;;;4.00;3.58;;;17.50;99.90;;;;;;2090360;28;20471;-70
2023/07/27 00:23:31;;;;;;;3.97;3.45;;;17.50;99.90;;;;;;2090372;28;20028;-70
2023/07/27 00:24:31;;;;;;;4.93;3.42;;;17.50;99.90;;;;;;2091216;28;20549;-70
2023/07/27 00:25:32;;;;;;;6.63;3.10;;;17.50;99.90;;;;;;2090906;28;20234;-70
2023/07/27 00:26:32;;;;;;;4.53;2.97;;;17.50;99.90;;;;;;2091926;28;20572;-70
2023/07/27 00:27:33;;;;;;;5.50;3.40;;;17.60;99.90;;;;;;2094214;28;20017;-70
2023/07/27 00:28:33;;;;;;;5.68;3.20;;;17.60;99.90;;;;;;2091633;28;20036;-70
2023/07/27 00:29:34;;;;;;;4.28;3.40;;;17.50;99.90;;;;;;2091326;28;20021;-70
2023/07/27 00:30:34;;;;;;;5.88;3.60;;;17.50;99.90;;;;;;2090912;28;20036;-70
2023/07/27 00:31:35;;;;;;;4.30;3.90;;;17.50;99.90;;;;;;2091317;28;20025;-70
2023/07/27 00:32:35;;;;;;;4.38;3.53;;;17.50;99.90;;;;;;2090584;28;20025;-70
2023/07/27 00:33:36;;;;;;;4.38;3.35;;;17.50;99.90;;;;;;2091791;28;20025;-70
2023/07/27 00:34:36;;;;;;;4.75;3.67;;;17.50;99.90;;;;;;2091066;28;20020;-70
2023/07/27 00:35:37;;;;;;;6.00;3.33;;;17.50;99.90;;;;;;2090806;28;20077;-70
2023/07/27 00:36:38;;;;;;;4.30;3.90;;;17.50;99.90;;;;;;2091884;28;20583;-70
2023/07/27 00:37:38;;;;;;;3.90;3.08;;;17.50;99.90;;;;;;2090984;28;20151;-70
2023/07/27 00:38:39;;;;;;;3.67;3.20;;;17.50;99.90;;;;;;2092593;28;20434;-70
2023/07/27 00:39:39;;;;;;;5.80;3.40;;;17.50;99.90;;;;;;2091665;28;20017;-70
2023/07/27 00:40:40;;;;;;;4.90;3.00;;;17.50;99.90;;;;;;2090878;28;20397;-70
2023/07/27 00:41:41;;;;;;;5.47;3.15;;;17.50;99.90;;;;;;2091612;28;20119;-70
2023/07/27 00:42:41;;;;;;;3.95;3.40;;;17.50;99.90;;;;;;2091276;28;20035;-70
2023/07/27 00:43:42;;;;;;;4.90;3.08;;;17.50;99.90;;;;;;2092574;28;20071;-70
2023/07/27 00:44:43;;;;;;;3.97;3.33;;;17.50;99.90;;;;;;2091109;28;20029;-70
2023/07/27 00:45:43;;;;;;;5.43;3.10;;;17.50;99.90;;;;;;2090250;28;20032;-70
2023/07/27 00:46:44;;;;;;;4.95;3.80;;;17.60;99.90;;;;;;2092254;28;20021;-70
2023/07/27 00:47:45;;;;;;;5.00;3.28;;;17.50;99.90;;;;;;2092213;28;20043;-70
2023/07/27 00:48:46;;;;;;;4.57;3.13;;;17.50;99.90;;;;;;2092328;28;20029;-70
2023/07/27 00:49:47;;;;;;;5.15;3.33;;;17.60;99.90;;;;;;2090465;28;20531;-70
2023/07/27 00:50:48;;;;;;;3.15;2.85;;;17.50;99.90;;;;;;2092504;28;20033;-70
2023/07/27 00:51:48;;;;;;;3.50;3.20;;;17.50;99.90;;;;;;2091472;28;20017;-70
2023/07/27 00:52:49;;;;;;;3.78;2.95;;;17.60;99.90;;;;;;2089991;28;20033;-70
2023/07/27 00:53:50;;;;;;;5.57;3.45;;;17.50;99.90;;;;;;2092498;28;20021;-70
2023/07/27 00:54:54;;;;;;;5.13;3.17;;;17.50;99.90;;;;;;2093988;28;20020;-70
2023/07/27 00:55:55;;;;;;;3.90;3.50;;;17.50;99.90;;;;;;2091532;28;20048;-70
2023/07/27 00:56:55;;;;;;;3.28;2.80;;;17.60;99.90;;;;;;2092359;28;20551;-70
2023/07/27 00:57:57;;;;;;;3.25;2.78;;;17.50;99.90;;;;;;2090279;28;20032;-70
2023/07/27 00:59:03;;;;;;;4.13;2.88;;;17.50;99.90;;;;;;2093504;28;20742;-70
2023/07/27 01:00:04;;;;;;;4.07;2.95;;;17.50;99.90;;;;;;2091323;28;20033;-70
2023/07/27 01:01:06;;;;;;;3.65;3.28;;;17.50;99.90;;;;;;2093081;28;20036;-70
2023/07/27 01:02:07;;;;;;;3.33;2.75;;;17.50;99.90;;;;;;2092307;28;20503;-70
2023/07/27 01:03:07;;;;;;;5.72;3.17;;;17.50;99.90;;;;;;2091189;28;20157;-70
2023/07/27 01:04:08;;;;;;;5.40;3.05;;;17.50;99.90;;;;;;2091122;28;20071;-70
2023/07/27 01:05:09;;;;;;;5.13;3.10;;;17.50;99.90;;;;;;2089754;28;20111;-70
2023/07/27 01:06:10;;;;;;;3.42;2.75;;;17.50;99.90;;;;;;2091774;28;20021;-70
2023/07/27 01:07:10;;;;;;;3.53;3.10;;;17.50;99.90;;;;;;2089668;28;20053;-70
2023/07/27 01:08:11;;;;;;;3.75;2.90;;;17.50;99.90;;;;;;2093645;28;20017;-70
2023/07/27 01:09:12;;;;;;;6.13;3.15;;;17.50;99.90;;;;;;2091435;28;20442;-70
2023/07/27 01:10:12;;;;;;;3.33;3.03;;;17.50;99.90;;;;;;2090241;28;20013;-70
2023/07/27 01:11:37;;;;;;;3.30;2.47;;;17.50;99.90;;;;;;2093398;28;20035;-70
2023/07/27 01:12:57;;;;;;;3.30;3.00;;;17.50;99.90;;;;;;2090476;28;20127;-70
2023/07/27 01:14:24;;;;;;;3.83;3.00;;;17.50;99.90;;;;;;2092130;28;20427;-70
2023/07/27 01:15:30;;;;;;;4.40;3.33;;;17.50;99.90;;;;;;2093091;28;20097;-70
2023/07/27 01:16:37;;;;;;;4.25;2.85;;;17.40;99.90;;;;;;2089207;28;20046;-70
2023/07/27 01:17:50;;;;;;;5.22;3.03;;;17.50;99.90;;;;;;2093305;28;20380;-70
2023/07/27 01:19:02;;;;;;;3.88;3.08;;;17.50;99.90;;;;;;2092282;28;20526;-70
2023/07/27 01:20:32;;;;;;;3.58;2.97;;;17.50;99.90;;;;;;2091088;28;20350;-70
2023/07/27 01:21:39;;;;;;;4.32;3.60;;;17.50;99.90;;;;;;2092088;28;20032;-70
2023/07/27 01:22:43;;;;;;;6.47;3.47;;;17.40;99.90;;;;;;2090619;28;20037;-70
2023/07/27 01:23:43;;;;;;;4.25;2.97;;;17.50;99.90;;;;;;2091216;28;20432;-70
2023/07/27 01:25:05;;;;;;;3.75;2.88;;;17.40;99.90;;;;;;2089807;28;20021;-70
2023/07/27 01:26:38;;;;;;;3.38;3.08;;;17.50;99.90;;;;;;2090664;28;20032;-70
2023/07/27 01:28:20;;;;;;;5.13;3.10;;;17.40;99.90;;;;;;2092782;28;20020;-70
2023/07/27 01:29:27;;;;;;;6.55;3.17;;;17.50;99.90;;;;;;2092141;28;20072;-71
2023/07/27 01:30:27;;;;;;;4.13;2.60;;;17.40;99.90;;;;;;2090292;28;20540;-70
2023/07/27 01:31:40;;;;;;;3.20;2.90;;;17.40;99.90;;;;;;2091967;28;20652;-70
2023/07/27 01:32:43;;;;;;;3.30;2.88;;;17.40;99.90;;;;;;2093389;28;20111;-70
2023/07/27 01:33:47;;;;;;;3.35;2.83;;;17.40;99.90;;;;;;2092664;28;20115;-70
2023/07/27 01:34:54;;;;;;;3.35;2.70;;;17.40;99.90;;;;;;2091092;28;20051;-70
2023/07/27 01:36:08;;;;;;;5.10;2.97;;;17.40;99.90;;;;;;2093176;28;20032;-70
2023/07/27 01:37:12;;;;;;;3.63;3.30;;;17.40;99.90;;;;;;2093709;28;20119;-70
2023/07/27 01:38:14;;;;;;;4.22;2.92;;;17.50;99.90;;;;;;2093030;28;20504;-71
2023/07/27 01:39:17;;;;;;;3.58;2.50;;;17.40;99.90;;;;;;2094271;28;20187;-71
2023/07/27 01:40:18;;;;;;;4.25;2.60;;;17.50;99.90;;;;;;2092712;28;20120;-70
2023/07/27 01:41:19;;;;;;;4.88;3.08;;;17.50;99.90;;;;;;2094369;28;20090;-70
2023/07/27 01:42:22;;;;;;;4.45;3.10;;;17.50;99.90;;;;;;2092880;28;20060;-70
2023/07/27 01:43:25;;;;;;;4.18;2.92;;;17.50;99.90;;;;;;2093379;28;20035;-70
2023/07/27 01:44:28;;;;;;;2.40;2.20;;;17.50;99.90;;;;;;2094257;28;20632;-70
2023/07/27 01:45:29;;;;;;;6.23;2.80;;;17.50;99.90;;;;;;2092070;28;20388;-70
2023/07/27 01:46:31;;;;;;;3.47;2.65;;;17.50;99.90;;;;;;2092200;28;20029;-70
2023/07/27 01:47:32;;;;;;;3.22;2.80;;;17.50;99.90;;;;;;2092021;28;20028;-70
2023/07/27 01:48:35;;;;;;;4.55;2.85;;;17.50;99.90;;;;;;2093217;28;20025;-70
2023/07/27 01:49:39;;;;;;;4.68;2.42;;;17.60;99.90;;;;;;2092557;28;20479;-70
2023/07/27 01:50:41;;;;;;;4.25;2.60;;;17.60;99.90;;;;;;2092411;28;20032;-70
2023/07/27 01:51:42;;;;;;;5.13;2.47;;;17.60;99.90;;;;;;2091963;28;20036;-70
2023/07/27 01:52:45;;;;;;;3.70;2.80;;;17.60;99.90;;;;;;2093532;28;20704;-70
2023/07/27 01:53:47;;;;;;;5.97;2.80;;;17.60;99.90;;;;;;2092540;28;20036;-70
2023/07/27 01:54:49;;;;;;;4.18;2.88;;;17.60;99.90;;;;;;2093827;28;20032;-70
2023/07/27 01:55:51;;;;;;;3.50;2.50;;;17.60;99.90;;;;;;2092336;28;20123;-70
2023/07/27 01:56:53;;;;;;;3.15;2.60;;;17.60;99.90;;;;;;2092066;28;20031;-70
2023/07/27 01:57:56;;;;;;;3.03;2.72;;;17.60;99.90;;;;;;2093747;28;20040;-70
2023/07/27 01:58:58;;;;;;;3.97;2.65;;;17.60;99.90;;;;;;2091654;28;20746;-70
2023/07/27 01:59:59;;;;;;;4.43;2.70;;;17.60;99.90;;;;;;2093980;28;20153;-70
2023/07/27 02:01:00;;;;;;;3.15;2.50;;;17.70;99.90;;;;;;2093006;28;20411;-70
2023/07/27 02:02:01;;;;;;;4.45;2.70;;;17.70;99.90;;;;;;2093694;28;20533;-70
2023/07/27 02:03:02;;;;;;;3.28;2.55;;;17.70;99.90;;;;;;2091787;28;20043;-70
2023/07/27 02:04:04;;;;;;;5.20;3.15;;;17.70;99.90;;;;;;2092166;28;20055;-70
2023/07/27 02:05:06;;;;;;;4.70;2.83;;;17.70;99.90;;;;;;2092950;28;20962;-70
2023/07/27 02:06:06;;;;;;;4.85;2.92;;;17.70;99.90;;;;;;2092087;28;20047;-70
2023/07/27 02:07:07;;;;;;;3.13;2.40;;;17.70;99.90;;;;;;2092591;28;20579;-70
2023/07/27 02:08:07;;;;;;;4.38;2.58;;;17.70;99.90;;;;;;2091900;28;20017;-70
2023/07/27 02:09:08;;;;;;;2.80;2.42;;;17.70;99.90;;;;;;2093398;28;20028;-70
2023/07/27 02:10:13;;;;;;;3.20;2.47;;;17.70;99.90;;;;;;2091802;28;20017;-70
2023/07/27 02:11:16;;;;;;;3.95;2.33;;;17.70;99.90;;;;;;2091436;28;20135;-70
2023/07/27 02:12:26;;;;;;;4.05;2.80;;;17.70;99.90;;;;;;2092075;28;20078;-70
2023/07/27 02:13:35;;;;;;;3.80;2.60;;;17.70;99.90;;;;;;2092920;28;20021;-70
2023/07/27 02:15:13;;;;;;;3.08;2.60;;;17.70;99.90;;;;;;2093199;28;20017;-70
2023/07/27 02:16:29;;;;;;;4.85;2.30;;;17.70;99.90;;;;;;2093194;28;20402;-70
2023/07/27 02:17:38;;;;;;;3.75;2.88;;;17.70;99.90;;;;;;2093134;28;20020;-70
2023/07/27 02:18:43;;;;;;;3.53;2.42;;;17.70;99.90;;;;;;2093300;28;20537;-70
2023/07/27 02:19:49;;;;;;;2.58;2.35;;;17.70;99.90;;;;;;2091005;28;20131;-70
2023/07/27 02:20:51;;;;;;;3.78;2.75;;;17.70;99.90;;;;;;2092734;28;20098;-70
2023/07/27 02:21:55;;;;;;;8.40;3.15;;;17.80;99.90;;;;;;2092746;28;20027;-70
2023/07/27 02:22:56;;;;;;;5.32;2.40;;;17.70;99.90;;;;;;2092229;28;20067;-70
2023/07/27 02:23:58;;;;;;;3.38;2.67;;;17.80;99.90;;;;;;2091897;28;20029;-70
2023/07/27 02:24:59;;;;;;;4.45;2.75;;;17.80;99.90;;;;;;2091520;28;20086;-70
2023/07/27 02:26:00;;;;;;;3.10;2.72;;;17.80;99.90;;;;;;2091969;28;20025;-70
2023/07/27 02:27:00;;;;;;;3.15;2.67;;;17.80;99.90;;;;;;2092741;28;20166;-70
2023/07/27 02:28:01;;;;;;;5.63;2.63;;;17.80;99.90;;;;;;2092027;28;20082;-70
2023/07/27 02:29:02;;;;;;;2.92;2.45;;;17.80;99.90;;;;;;2092692;28;20400;-70
2023/07/27 02:30:03;;;;;;;3.60;3.30;;;17.80;99.90;;;;;;2091524;28;20021;-70
2023/07/27 02:31:03;;;;;;;3.38;2.50;;;17.80;99.90;;;;;;2091229;28;20021;-70
2023/07/27 02:32:04;;;;;;;4.70;2.75;;;17.90;99.90;;;;;;2090715;28;20024;-70
2023/07/27 02:33:05;;;;;;;2.70;2.33;;;17.90;99.90;;;;;;2090852;28;20024;-70
2023/07/27 02:34:06;;;;;;;5.13;2.80;;;17.90;99.90;;;;;;2095207;28;20106;-70
2023/07/27 02:35:07;;;;;;;3.28;2.67;;;17.80;99.90;;;;;;2092862;28;20028;-70
2023/07/27 02:36:07;;;;;;;5.03;2.70;;;17.90;99.90;;;;;;2091849;28;20029;-72
2023/07/27 02:37:08;;;;;;;6.30;2.85;;;17.90;99.90;;;;;;2092048;28;20036;-70
2023/07/27 02:38:08;;;;;;;4.47;2.95;;;17.90;99.90;;;;;;2091673;28;20484;-70
2023/07/27 02:39:09;;;;;;;3.13;2.42;;;17.90;99.90;;;;;;2091989;28;20017;-70
2023/07/27 02:40:09;;;;;;;5.20;2.88;;;17.90;99.90;;;;;;2090673;28;20091;-70
2023/07/27 02:41:10;;;;;;;4.10;2.60;;;17.90;99.90;;;;;;2091997;28;20397;-70
2023/07/27 02:42:11;;;;;;;3.83;2.85;;;17.90;99.90;;;;;;2092860;28;20067;-70
2023/07/27 02:43:11;;;;;;;4.35;3.20;;;17.90;99.90;;;;;;2091257;28;20024;-70
2023/07/27 02:44:12;;;;;;;4.57;2.83;;;17.90;99.90;;;;;;2091609;28;20065;-70
2023/07/27 02:45:13;;;;;;;5.07;3.03;;;17.90;99.90;;;;;;2093035;28;20032;-70
2023/07/27 02:46:13;;;;;;;4.63;3.10;;;17.90;99.90;;;;;;2094093;28;20365;-70
2023/07/27 02:47:14;;;;;;;6.47;2.85;;;17.90;99.90;;;;;;2092145;28;20485;-70
2023/07/27 02:48:15;;;;;;;3.20;2.72;;;17.90;99.90;;;;;;2093115;28;20019;-70
2023/07/27 02:49:15;;;;;;;3.38;2.83;;;17.90;99.90;;;;;;2091370;28;20017;-70
2023/07/27 02:50:16;;;;;;;3.92;2.83;;;17.90;99.90;;;;;;2093549;28;20025;-70
2023/07/27 02:51:16;;;;;;;5.95;2.58;;;17.90;99.90;;;;;;2091618;28;20373;-70
2023/07/27 02:52:17;;;;;;;5.20;2.60;;;17.90;99.90;;;;;;2090037;28;20100;-70
2023/07/27 02:53:17;;;;;;;4.28;2.58;;;17.90;99.90;;;;;;2092387;28;20032;-70
2023/07/27 02:54:18;;;;;;;3.10;2.53;;;17.90;99.90;;;;;;2094076;28;20059;-70
2023/07/27 02:55:18;;;;;;;4.50;2.65;;;17.90;99.90;;;;;;2092152;28;20417;-70
2023/07/27 02:56:19;;;;;;;5.93;3.00;;;17.90;99.90;;;;;;2092714;28;20029;-70
2023/07/27 02:57:19;;;;;;;5.07;2.78;;;17.90;99.90;;;;;;2091937;28;20485;-70
2023/07/27 02:58:20;;;;;;;5.72;2.63;;;17.90;99.90;;;;;;2094136;28;20017;-70
2023/07/27 02:59:20;;;;;;;10.00;4.47;;;17.90;99.90;;;;;;2092904;28;20083;-70
2023/07/27 03:00:21;;;;;;;5.13;2.80;;;17.90;99.90;;;;;;2092108;28;20155;-70
2023/07/27 03:01:21;;;;;;;5.50;2.78;;;17.90;99.90;;;;;;2092055;28;20028;-70
2023/07/27 03:02:22;;;;;;;3.45;2.78;;;17.90;99.90;;;;;;2091709;28;20059;-70
2023/07/27 03:03:23;;;;;;;3.67;2.70;;;17.90;99.90;;;;;;2094221;28;20025;-70
2023/07/27 03:04:23;;;;;;;4.15;2.47;;;17.90;99.90;;;;;;2093958;28;20090;-70
2023/07/27 03:05:24;;;;;;;5.72;3.33;;;17.90;99.90;;;;;;2091549;28;20056;-70
2023/07/27 03:06:24;;;;;;;4.72;2.72;;;17.90;99.90;;;;;;2091911;28;20052;-70
2023/07/27 03:07:25;;;;;;;5.35;2.85;;;17.90;99.90;;;;;;2091621;28;20082;-70
2023/07/27 03:08:26;;;;;;;3.97;2.75;;;17.90;99.90;;;;;;2092705;28;20492;-70
2023/07/27 03:09:26;;;;;;;4.95;3.15;;;17.90;99.90;;;;;;2092356;28;20027;-70
2023/07/27 03:10:27;;;;;;;5.15;3.05;;;17.90;99.90;;;;;;2091385;28;20032;-70
2023/07/27 03:11:27;;;;;;;4.50;2.55;;;18.00;99.90;;;;;;2090524;28;20025;-70
2023/07/27 03:12:28;;;;;;;2.75;2.35;;;18.00;99.90;;;;;;2092927;28;20077;-70
2023/07/27 03:13:29;;;;;;;4.82;2.92;;;18.00;99.90;;;;;;2091148;28;20036;-70
2023/07/27 03:14:30;;;;;;;4.57;3.08;;;18.00;99.90;;;;;;2092731;28;20016;-70
2023/07/27 03:15:30;;;;;;;4.30;3.30;;;18.00;99.90;;;;;;2091764;28;20044;-70
2023/07/27 03:16:31;;;;;;;3.90;2.65;;;18.00;99.90;;;;;;2090821;28;20017;-70
2023/07/27 03:17:32;;;;;;;5.50;2.90;;;18.00;99.90;;;;;;2091220;28;20033;-70
2023/07/27 03:18:33;;;;;;;5.53;2.97;;;18.00;99.90;;;;;;2093797;28;20052;-69
2023/07/27 03:19:34;;;;;;;3.88;2.70;;;18.00;99.90;;;;;;2088642;28;20761;-69
2023/07/27 03:20:39;;;;;;;2.85;2.42;;;18.00;99.90;;;;;;2090618;28;20396;-69
2023/07/27 03:21:41;;;;;;;4.53;2.97;;;18.00;99.90;;;;;;2092975;28;20024;-69
2023/07/27 03:22:42;;;;;;;3.65;2.88;;;18.00;99.90;;;;;;2092159;28;20090;-69
2023/07/27 03:23:42;;;;;;;3.60;2.70;;;18.00;99.90;;;;;;2092666;28;20077;-69
2023/07/27 03:24:43;;;;;;;3.90;2.92;;;18.00;99.90;;;;;;2090939;28;20151;-69
2023/07/27 03:25:43;;;;;;;4.53;2.90;;;18.00;99.90;;;;;;2091934;28;20013;-69
2023/07/27 03:26:44;;;;;;;5.22;2.97;;;18.00;99.90;;;;;;2091203;28;20063;-69
2023/07/27 03:27:44;;;;;;;3.53;3.03;;;18.00;99.90;;;;;;2093115;28;20032;-70
2023/07/27 03:28:45;;;;;;;3.42;3.13;;;18.00;99.90;;;;;;2091460;28;20028;-70
2023/07/27 03:29:45;;;;;;;3.67;3.08;;;18.00;99.90;;;;;;2090688;28;20025;-70
2023/07/27 03:30:46;;;;;;;4.15;2.80;;;18.00;99.90;;;;;;2089396;28;20377;-70
2023/07/27 03:31:46;;;;;;;5.07;2.97;;;18.00;99.90;;;;;;2090411;28;20035;-70
2023/07/27 03:32:47;;;;;;;5.75;3.13;;;18.00;99.90;;;;;;2091836;28;20024;-70
2023/07/27 03:33:48;;;;;;;5.40;3.25;;;18.00;99.90;;;;;;2092964;28;20740;-70
2023/07/27 03:34:49;;;;;;;5.97;3.10;;;18.00;99.90;;;;;;2091288;28;20024;-70
2023/07/27 03:35:50;;;;;;;5.43;3.28;;;17.90;99.90;;;;;;2091853;28;20036;-70
2023/07/27 03:36:50;;;;;;;4.43;3.33;;;17.90;99.90;;;;;;2092409;28;20438;-70
2023/07/27 03:37:51;;;;;;;3.47;2.60;;;18.00;99.90;;;;;;2092048;28;20035;-70
2023/07/27 03:38:51;;;;;;;6.45;3.13;;;18.00;99.90;;;;;;2093286;28;20033;-70
2023/07/27 03:39:52;;;;;;;4.03;2.90;;;17.90;99.90;;;;;;2092110;28;20033;-70
2023/07/27 03:40:52;;;;;;;6.32;3.22;;;17.90;99.90;;;;;;2092008;28;20028;-70
2023/07/27 03:41:53;;;;;;;5.55;3.47;;;17.90;99.90;;;;;;2094765;28;20032;-70
2023/07/27 03:42:54;;;;;;;4.45;3.25;;;17.90;99.90;;;;;;2093725;28;20503;-70
2023/07/27 03:43:54;;;;;;;5.90;3.33;;;17.90;99.90;;;;;;2091783;28;20086;-70
2023/07/27 03:44:55;;;;;;;4.75;2.85;;;17.90;99.90;;;;;;2092679;28;20384;-70
2023/07/27 03:45:55;;;;;;;4.88;2.90;;;17.90;99.90;;;;;;2092081;28;20028;-70
2023/07/27 03:46:56;;;;;;;5.90;3.13;;;17.90;99.90;;;;;;2092570;28;20024;-70
2023/07/27 03:47:57;;;;;;;4.00;2.97;;;17.90;99.90;;;;;;2091944;28;20071;-70
2023/07/27 03:48:58;;;;;;;8.98;3.58;;;17.90;99.90;;;;;;2092643;28;20028;-70
2023/07/27 03:49:58;;;;;;;4.57;3.38;;;17.90;99.90;;;;;;2091539;28;20044;-70
2023/07/27 03:51:00;;;;;;;4.53;3.35;;;17.90;99.90;;;;;;2092659;28;20024;-70
2023/07/27 03:52:01;;;;;;;6.00;3.60;;;17.90;99.90;;;;;;2093072;28;20044;-70
2023/07/27 03:53:01;;;;;;;7.72;3.58;;;17.90;99.90;;;;;;2092947;28;20139;-70
2023/07/27 03:54:02;;;;;;;4.40;3.58;;;17.90;99.90;;;;;;2091424;28;20029;-70
2023/07/27 03:55:03;;;;;;;4.78;3.03;;;17.80;99.90;;;;;;2089646;28;20435;-70
2023/07/27 03:56:04;;;;;;;5.93;3.60;;;17.90;99.90;;;;;;2089229;28;20431;-70
2023/07/27 03:57:05;;;;;;;3.28;2.88;;;17.90;99.90;;;;;;2090365;28;20055;-70
2023/07/27 03:58:06;;;;;;;4.80;3.30;;;17.90;99.90;;;;;;2092701;28;20059;-70
2023/07/27 03:59:06;;;;;;;6.32;3.33;;;17.80;99.90;;;;;;2091588;28;20028;-70
2023/07/27 04:00:07;;;;;;;6.05;3.00;;;17.80;99.90;;;;;;2092810;28;20020;-70
2023/07/27 04:01:08;;;;;;;7.07;3.25;;;17.80;99.90;;;;;;2092445;28;20066;-70
2023/07/27 04:02:08;;;;;;;3.42;3.13;;;17.80;99.90;;;;;;2092215;28;20046;-70
2023/07/27 04:03:09;;;;;;;4.85;3.08;;;17.80;99.90;;;;;;2092015;28;20024;-70
2023/07/27 04:04:10;;;;;;;4.90;3.25;;;17.80;99.90;;;;;;2092050;28;20025;-70
2023/07/27 04:05:11;;;;;;;7.28;3.20;;;17.80;99.90;;;;;;2095015;28;20020;-70
2023/07/27 04:06:11;;;;;;;4.75;3.20;;;17.80;99.90;;;;;;2092608;28;20408;-70
2023/07/27 04:07:12;;;;;;;5.82;4.10;;;17.80;99.90;;;;;;2092156;28;20107;-70
2023/07/27 04:08:12;;;;;;;6.22;3.60;;;17.70;99.90;;;;;;2090091;28;20032;-70
2023/07/27 04:09:13;;;;;;;5.00;3.63;;;17.70;99.90;;;;;;2090768;28;20048;-70
2023/07/27 04:10:14;;;;;;;3.65;3.35;;;17.70;99.90;;;;;;2089892;28;20942;-70
2023/07/27 04:11:14;;;;;;;6.05;3.65;;;17.70;99.90;;;;;;2090749;28;20030;-70
2023/07/27 04:12:15;;;;;;;4.32;3.47;;;17.70;99.90;;;;;;2091882;28;20029;-70
2023/07/27 04:13:15;;;;;;;7.78;3.67;;;17.60;99.90;;;;;;2093050;28;20063;-70
2023/07/27 04:14:16;;;;;;;4.05;3.47;;;17.60;99.90;;;;;;2092653;28;20142;-70
2023/07/27 04:15:17;;;;;;;8.13;3.50;;;17.60;99.90;;;;;;2091824;28;20071;-70
2023/07/27 04:16:18;;;;;;;4.65;3.42;;;17.60;99.90;;;;;;2091085;28;20744;-70
2023/07/27 04:17:18;;;;;;;3.85;3.20;;;17.60;99.90;;;;;;2093150;28;20377;-70
2023/07/27 04:18:19;;;;;;;6.35;3.35;;;17.60;99.90;;;;;;2092882;28;20035;-70
2023/07/27 04:19:19;;;;;;;6.00;3.78;;;17.60;99.90;;;;;;2092110;28;20542;-70
2023/07/27 04:20:20;;;;;;;4.43;3.58;;;17.60;99.90;;;;;;2090730;28;20054;-70
2023/07/27 04:21:20;;;;;;;5.45;3.78;;;17.60;99.90;;;;;;2090402;28;20094;-70
2023/07/27 04:22:21;;;;;;;5.38;3.78;;;17.60;99.90;;;;;;2093433;28;20035;-70
2023/07/27 04:23:21;;;;;;;4.90;3.53;;;17.50;99.90;;;;;;2091164;28;20046;-70
2023/07/27 04:24:23;;;;;;;7.43;3.90;;;17.60;99.90;;;;;;2093460;28;20098;-70
2023/07/27 04:25:24;;;;;;;4.82;3.60;;;17.50;99.90;;;;;;2093607;28;20082;-70
2023/07/27 04:26:24;;;;;;;6.05;3.47;;;17.50;99.90;;;;;;2089968;28;20029;-70
2023/07/27 04:27:25;;;;;;;4.85;3.28;;;17.50;99.90;;;;;;2091780;28;20028;-70
2023/07/27 04:28:25;;;;;;;6.82;3.30;;;17.50;99.90;;;;;;2091193;28;20429;-70
2023/07/27 04:29:26;;;;;;;5.97;3.55;;;17.50;99.90;;;;;;2091627;28;20017;-70
2023/07/27 04:30:26;;;;;;;4.57;3.25;;;17.50;99.90;;;;;;2091297;28;20090;-70
2023/07/27 04:31:27;;;;;;;4.10;3.67;;;17.50;99.90;;;;;;2090632;28;20047;-70
2023/07/27 04:32:28;;;;;;;3.85;3.45;;;17.50;99.90;;;;;;2090700;28;20048;-70
2023/07/27 04:33:28;;;;;;;7.80;3.85;;;17.50;99.90;;;;;;2092676;28;20028;-70
2023/07/27 04:34:29;;;;;;;4.63;3.55;;;17.50;99.90;;;;;;2091673;28;20452;-70
2023/07/27 04:35:29;;;;;;;4.22;3.58;;;17.50;99.90;;;;;;2091433;28;20541;-70
2023/07/27 04:36:30;;;;;;;6.20;3.80;;;17.50;99.90;;;;;;2091748;28;20028;-70
2023/07/27 04:37:30;;;;;;;6.57;3.22;;;17.50;99.90;;;;;;2091969;28;20125;-70
2023/07/27 04:38:31;;;;;;;5.38;3.45;;;17.50;99.90;;;;;;2091475;28;20052;-70
2023/07/27 04:39:31;;;;;;;4.97;3.80;;;17.50;99.90;;;;;;2090917;28;20137;-70
2023/07/27 04:40:32;;;;;;;6.05;3.55;;;17.50;99.90;;;;;;2090726;28;20029;-70
2023/07/27 04:41:32;;;;;;;4.90;3.65;;;17.50;99.90;;;;;;2091688;28;20094;-70
2023/07/27 04:42:33;;;;;;;4.97;3.50;;;17.50;99.90;;;;;;2090130;28;20401;-70
2023/07/27 04:43:33;;;;;;;6.43;3.90;;;17.50;99.90;;;;;;2093531;28;20021;-70
2023/07/27 04:44:34;;;;;;;8.90;3.40;;;17.50;99.90;;;;;;2091257;28;20031;-70
2023/07/27 04:45:34;;;;;;;5.43;3.40;;;17.50;99.90;;;;;;2091812;28;20040;-70
2023/07/27 04:46:35;;;;;;;4.13;3.08;;;17.50;99.90;;;;;;2092170;28;20508;-70
2023/07/27 04:47:35;;;;;;;5.65;3.60;;;17.50;99.90;;;;;;2091093;28;20071;-70
2023/07/27 04:48:36;;;;;;;4.43;3.75;;;17.50;99.90;;;;;;2093291;28;20044;-70
2023/07/27 04:49:37;;;;;;;4.85;3.35;;;17.50;99.90;;;;;;2091206;28;20036;-70
2023/07/27 04:50:37;;;;;;;4.63;3.97;;;17.50;99.90;;;;;;2090628;28;20017;-70
2023/07/27 04:51:38;;;;;;;3.75;3.25;;;17.50;99.90;;;;;;2092869;28;20094;-70
2023/07/27 04:52:38;;;;;;;6.30;4.20;;;17.50;99.90;;;;;;2092162;28;20079;-70
2023/07/27 04:53:39;;;;;;;5.72;3.72;;;17.40;99.90;;;;;;2090703;28;20473;-70
2023/07/27 04:54:39;;;;;;;4.63;3.20;;;17.40;99.90;;;;;;2093473;28;20074;-70
2023/07/27 04:55:40;;;;;;;4.20;3.80;;;17.40;99.90;;;;;;2092677;28;20021;-70
2023/07/27 04:56:40;;;;;;;5.50;3.92;;;17.40;99.90;;;;;;2091062;28;20025;-70
2023/07/27 04:57:41;;;;;;;4.80;3.55;;;17.40;99.90;;;;;;2091818;28;20025;-70
2023/07/27 04:58:41;;;;;;;6.50;4.03;;;17.40;99.90;;;;;;2091252;28;20108;-70
2023/07/27 04:59:42;;;;;;;4.75;3.90;;;17.30;99.90;;;;;;2092055;28;20025;-70
2023/07/27 05:00:43;;;;;;;6.05;4.25;;;17.40;99.90;;;;;;2091154;28;20021;-70
2023/07/27 05:01:44;;;;;;;6.32;3.88;;;17.40;99.90;;;;;;2094508;28;20020;-70
2023/07/27 05:02:44;;;;;;;5.85;3.55;;;17.40;99.90;;;;;;2091881;28;20027;-70
2023/07/27 05:03:45;;;;;;;7.03;3.90;;;17.40;99.90;;;;;;2091426;28;20128;-70
2023/07/27 05:04:45;;;;;;;7.30;3.85;;;17.40;99.90;;;;;;2092267;28;20029;-70
2023/07/27 05:05:46;;;;;;;4.80;3.80;;;17.40;99.90;;;;;;2092067;28;20016;-70
2023/07/27 05:06:47;;;;;;;5.03;3.63;;;17.40;99.90;;;;;;2093550;28;20472;-70
2023/07/27 05:07:47;;;;;;;5.75;3.83;;;17.40;99.90;;;;;;2093365;28;20040;-70
2023/07/27 05:08:48;;;;;;;6.15;4.03;;;17.40;99.90;;;;;;2094230;28;20688;-70
2023/07/27 05:09:48;;;;;;;5.88;3.70;;;17.40;99.90;;;;;;2092993;28;20070;-70
2023/07/27 05:10:49;;;;;;;6.38;4.15;;;17.40;99.90;;;;;;2092767;28;20032;-70
2023/07/27 05:11:49;;;;;;;5.68;3.75;;;17.30;99.90;;;;;;2093781;28;20794;-70
2023/07/27 05:12:50;;;;;;;4.15;3.50;;;17.30;99.90;;;;;;2093152;28;20032;-70
2023/07/27 05:13:51;;;;;;;6.28;3.55;;;17.30;99.90;;;;;;2093061;28;20020;-70
2023/07/27 05:14:51;;;;;;;6.00;3.85;;;17.30;99.90;;;;;;2093686;28;20032;-70
2023/07/27 05:15:52;;;;;;;6.30;4.03;;;17.30;99.90;;;;;;2091817;28;20025;-70
2023/07/27 05:16:52;;;;;;;5.00;3.75;;;17.30;99.90;;;;;;2094025;28;20032;-70
2023/07/27 05:17:53;;;;;;;7.65;4.00;;;17.30;99.90;;;;;;2092859;28;20086;-70
2023/07/27 05:18:53;;;;;;;9.05;4.57;;;17.30;99.90;;;;;;2093812;28;20325;-70
2023/07/27 05:19:54;;;;;;;4.82;3.97;;;17.20;99.90;;;;;;2092272;28;20112;-70
2023/07/27 05:20:56;;;;;;;5.70;3.78;;;17.20;99.90;;;;;;2092764;28;20028;-70
2023/07/27 05:21:56;;;;;;;4.43;3.55;;;17.20;99.90;;;;;;2093023;28;20103;-70
2023/07/27 05:22:57;;;;;;;7.80;4.13;;;17.20;99.90;;;;;;2093404;28;20035;-70